createdAt,value
2022-12-18T00:00:11.166Z,200.88
2022-12-18T00:02:41.701Z,550.83
2022-12-18T00:05:09.156Z,187.63
2022-12-18T00:07:36.826Z,160.18
2022-12-18T00:10:04.945Z,215.75
2022-12-18T00:12:31.892Z,252.00
2022-12-18T00:14:58.919Z,204.48
2022-12-18T00:17:25.817Z,288.42
2022-12-18T00:19:52.847Z,365.27
2022-12-18T00:22:19.753Z,195.27
2022-12-18T00:24:46.706Z,247.50
2022-12-18T00:27:13.685Z,223.55
2022-12-18T00:29:40.618Z,175.35
2022-12-18T00:32:07.941Z,594.67
2022-12-18T00:34:35.226Z,225.20
2022-12-18T00:37:02.357Z,204.23
2022-12-18T00:39:29.310Z,529.55
2022-12-18T00:42:14.626Z,441.05
2022-12-18T00:44:41.610Z,191.75
2022-12-18T00:47:08.537Z,389.60
2022-12-18T00:49:36.298Z,189.90
2022-12-18T00:52:03.647Z,405.38
2022-12-18T00:54:30.615Z,462.55
2022-12-18T00:56:57.552Z,208.48
2022-12-18T00:59:24.516Z,486.23
2022-12-18T01:01:51.566Z,589.75
2022-12-18T01:04:20.537Z,233.73
2022-12-18T01:06:47.537Z,411.08
2022-12-18T01:09:14.610Z,379.98
2022-12-18T01:11:41.707Z,471.77
2022-12-18T01:14:08.933Z,339.80
2022-12-18T01:16:38.232Z,463.35
2022-12-18T01:19:05.338Z,198.13
2022-12-18T01:21:32.406Z,430.50
2022-12-18T01:24:04.815Z,307.15
2022-12-18T01:26:31.842Z,344.80
2022-12-18T01:28:59.362Z,202.68
2022-12-18T01:31:32.925Z,193.00
2022-12-18T01:34:05.128Z,303.52
2022-12-18T01:36:36.111Z,179.18
2022-12-18T01:39:10.934Z,369.05
2022-12-18T01:41:57.710Z,269.77
2022-12-18T01:45:03.757Z,167.95
2022-12-18T01:47:48.261Z,438.45
2022-12-18T01:50:37.848Z,231.52
2022-12-18T01:53:15.453Z,186.75
2022-12-18T01:55:53.769Z,161.23
2022-12-18T01:58:31.643Z,200.90
2022-12-18T02:00:59.057Z,171.20
2022-12-18T02:03:26.347Z,250.55
2022-12-18T02:05:57.514Z,165.98
2022-12-18T02:08:40.500Z,165.07
2022-12-18T02:11:37.645Z,153.70
2022-12-18T02:14:40.365Z,153.43
2022-12-18T02:17:30.726Z,163.82
2022-12-18T02:20:19.477Z,263.20
2022-12-18T02:23:13.731Z,272.90
2022-12-18T02:26:11.159Z,302.08
2022-12-18T02:28:46.459Z,205.00
2022-12-18T02:31:25.262Z,144.85
2022-12-18T02:34:04.058Z,278.00
2022-12-18T02:36:40.146Z,334.30
2022-12-18T02:39:11.427Z,138.90
2022-12-18T02:41:43.952Z,236.13
2022-12-18T02:44:14.175Z,244.85
2022-12-18T02:46:50.083Z,129.82
2022-12-18T02:49:30.657Z,198.45
2022-12-18T02:52:36.598Z,173.75
2022-12-18T02:55:29.416Z,146.50
2022-12-18T02:58:15.903Z,167.13
2022-12-18T03:00:55.034Z,166.80
2022-12-18T03:03:37.551Z,148.30
2022-12-18T03:06:16.173Z,142.15
2022-12-18T03:08:53.955Z,136.88
2022-12-18T03:11:41.022Z,156.75
2022-12-18T03:14:09.050Z,128.55
2022-12-18T03:16:38.502Z,212.30
2022-12-18T03:19:13.421Z,167.82
2022-12-18T03:21:49.311Z,261.90
2022-12-18T03:24:20.036Z,294.17
2022-12-18T03:26:53.932Z,285.23
2022-12-18T03:29:31.104Z,284.20
2022-12-18T03:32:08.834Z,163.52
2022-12-18T03:34:39.635Z,213.23
2022-12-18T03:37:08.681Z,208.85
2022-12-18T03:39:37.650Z,376.75
2022-12-18T03:42:37.349Z,258.95
2022-12-18T03:45:35.061Z,180.88
2022-12-18T03:48:21.267Z,348.05
2022-12-18T03:50:57.478Z,171.02
2022-12-18T03:53:27.797Z,263.45
2022-12-18T03:55:56.251Z,256.42
2022-12-18T03:58:30.025Z,281.20
2022-12-18T04:01:17.270Z,191.35
2022-12-18T04:03:48.046Z,194.48
2022-12-18T04:06:17.417Z,189.82
2022-12-18T04:08:47.745Z,160.63
2022-12-18T04:11:18.305Z,277.42
2022-12-18T04:13:47.631Z,227.95
2022-12-18T04:16:22.400Z,158.73
2022-12-18T04:18:53.864Z,173.15
2022-12-18T04:21:22.390Z,169.57
2022-12-18T04:23:50.411Z,169.35
2022-12-18T04:26:20.227Z,164.57
2022-12-18T04:29:00.242Z,184.75
2022-12-18T04:31:28.807Z,167.05
2022-12-18T04:33:56.535Z,300.47
2022-12-18T04:36:24.024Z,152.90
2022-12-18T04:38:51.420Z,185.50
2022-12-18T04:41:18.918Z,151.30
2022-12-18T04:43:48.416Z,143.57
2022-12-18T04:46:15.589Z,137.70
2022-12-18T04:48:42.691Z,125.75
2022-12-18T04:51:09.704Z,150.93
2022-12-18T04:53:36.985Z,183.85
2022-12-18T04:56:11.622Z,137.35
2022-12-18T04:58:41.019Z,147.68
2022-12-18T05:01:08.825Z,166.10
2022-12-18T05:03:37.841Z,140.07
2022-12-18T05:06:07.124Z,160.45
2022-12-18T05:08:35.068Z,149.65
2022-12-18T05:11:06.117Z,158.65
2022-12-18T05:13:34.340Z,144.77
2022-12-18T05:16:01.781Z,130.18
2022-12-18T05:18:30.131Z,137.10
2022-12-18T05:20:57.607Z,122.95
2022-12-18T05:23:26.136Z,133.00
2022-12-18T05:26:03.219Z,139.60
2022-12-18T05:28:32.627Z,126.03
2022-12-18T05:31:03.312Z,135.15
2022-12-18T05:33:34.167Z,124.20
2022-12-18T05:36:08.085Z,128.07
2022-12-18T05:38:39.126Z,121.88
2022-12-18T05:41:08.042Z,138.90
2022-12-18T05:43:38.204Z,127.75
2022-12-18T05:46:08.162Z,114.35
2022-12-18T05:48:35.298Z,132.25
2022-12-18T05:51:12.335Z,126.78
2022-12-18T05:53:40.287Z,124.53
2022-12-18T05:56:12.238Z,121.55
2022-12-18T05:58:39.705Z,130.90
2022-12-18T06:01:13.960Z,116.20
2022-12-18T06:03:41.630Z,128.48
2022-12-18T06:06:15.764Z,109.43
2022-12-18T06:08:46.207Z,152.05
2022-12-18T06:11:14.608Z,106.10
2022-12-18T06:13:41.752Z,121.88
2022-12-18T06:16:09.433Z,108.47
2022-12-18T06:18:39.302Z,145.35
2022-12-18T06:21:06.513Z,127.85
2022-12-18T06:23:33.779Z,166.88
2022-12-18T06:26:09.192Z,128.00
2022-12-18T06:28:36.400Z,109.78
2022-12-18T06:31:07.227Z,120.53
2022-12-18T06:33:35.222Z,120.30
2022-12-18T06:36:09.004Z,102.72
2022-12-18T06:38:39.722Z,103.15
2022-12-18T06:41:16.614Z,99.10
2022-12-18T06:43:44.823Z,106.70
2022-12-18T06:46:13.482Z,95.72
2022-12-18T06:48:41.173Z,101.28
2022-12-18T06:51:08.756Z,99.97
2022-12-18T06:53:35.735Z,100.05
2022-12-18T06:56:09.863Z,93.53
2022-12-18T06:58:40.193Z,129.98
2022-12-18T07:01:11.765Z,113.90
2022-12-18T07:03:44.014Z,102.05
2022-12-18T07:06:21.352Z,105.10
2022-12-18T07:08:50.833Z,97.45
2022-12-18T07:11:19.653Z,100.38
2022-12-18T07:13:47.411Z,104.20
2022-12-18T07:16:25.311Z,126.55
2022-12-18T07:18:55.490Z,164.80
2022-12-18T07:21:24.710Z,109.78
2022-12-18T07:23:51.722Z,100.38
2022-12-18T07:26:21.539Z,110.22
2022-12-18T07:28:49.472Z,105.35
2022-12-18T07:31:22.670Z,98.40
2022-12-18T07:33:51.229Z,103.80
2022-12-18T07:36:18.859Z,111.78
2022-12-18T07:38:49.272Z,135.00
2022-12-18T07:41:17.088Z,102.10
2022-12-18T07:43:44.549Z,99.43
2022-12-18T07:46:14.888Z,128.05
2022-12-18T07:48:43.673Z,98.75
2022-12-18T07:51:14.199Z,131.75
2022-12-18T07:53:42.843Z,119.35
2022-12-18T07:56:29.979Z,99.35
2022-12-18T07:58:59.392Z,99.82
2022-12-18T08:01:26.859Z,105.20
2022-12-18T08:03:54.246Z,123.95
2022-12-18T08:06:23.830Z,111.18
2022-12-18T08:08:53.859Z,116.35
2022-12-18T08:11:20.905Z,125.10
2022-12-18T08:13:48.806Z,115.82
2022-12-18T08:16:16.975Z,95.60
2022-12-18T08:18:44.044Z,109.07
2022-12-18T08:21:14.515Z,97.03
2022-12-18T08:23:43.348Z,102.30
2022-12-18T08:26:12.007Z,99.07
2022-12-18T08:28:39.465Z,100.03
2022-12-18T08:31:07.631Z,111.63
2022-12-18T08:33:36.275Z,98.82
2022-12-18T08:36:06.875Z,104.22
2022-12-18T08:38:34.577Z,107.35
2022-12-18T08:41:09.079Z,104.07
2022-12-18T08:43:54.885Z,96.85
2022-12-18T08:46:23.751Z,97.22
2022-12-18T08:48:56.920Z,94.90
2022-12-18T08:51:23.935Z,99.80
2022-12-18T08:53:50.932Z,98.55
2022-12-18T08:56:17.983Z,96.57
2022-12-18T08:58:45.113Z,91.25
2022-12-18T09:01:13.421Z,81.97
2022-12-18T09:03:40.863Z,84.03
2022-12-18T09:06:08.612Z,85.70
2022-12-18T09:08:36.000Z,100.10
2022-12-18T09:11:03.087Z,90.55
2022-12-18T09:13:30.115Z,78.05
2022-12-18T09:15:57.357Z,75.07
2022-12-18T09:18:25.395Z,81.95
2022-12-18T09:20:54.041Z,92.10
2022-12-18T09:23:22.337Z,95.78
2022-12-18T09:25:49.538Z,90.97
2022-12-18T09:28:20.302Z,98.97
2022-12-18T09:30:50.756Z,102.65
2022-12-18T09:33:18.279Z,84.32
2022-12-18T09:35:47.047Z,86.00
2022-12-18T09:38:19.104Z,81.15
2022-12-18T09:40:56.008Z,92.07
2022-12-18T09:43:31.465Z,85.63
2022-12-18T09:46:06.426Z,88.70
2022-12-18T09:48:41.966Z,89.40
2022-12-18T09:51:30.248Z,85.15
2022-12-18T09:54:07.955Z,89.75
2022-12-18T09:56:42.643Z,89.53
2022-12-18T09:59:24.833Z,77.53
2022-12-18T10:01:52.447Z,96.97
2022-12-18T10:04:20.023Z,95.05
2022-12-18T10:07:34.019Z,91.53
2022-12-18T10:10:14.723Z,88.45
2022-12-18T10:13:04.744Z,73.72
2022-12-18T10:15:45.259Z,81.68
2022-12-18T10:18:49.556Z,76.38
2022-12-18T10:21:33.750Z,78.47
2022-12-18T10:24:30.564Z,76.30
2022-12-18T10:27:16.203Z,85.00
2022-12-18T10:29:47.182Z,84.35
2022-12-18T10:32:29.997Z,88.68
2022-12-18T10:35:00.842Z,82.20
2022-12-18T10:37:30.924Z,78.95
2022-12-18T10:40:22.377Z,81.03
2022-12-18T10:43:07.465Z,73.38
2022-12-18T10:45:35.097Z,77.47
2022-12-18T10:48:02.249Z,66.03
2022-12-18T10:51:09.601Z,73.45
2022-12-18T10:53:31.172Z,74.13
2022-12-18T10:56:00.943Z,70.25
2022-12-18T10:58:40.537Z,74.15
2022-12-18T11:01:10.163Z,72.03
2022-12-18T11:04:09.649Z,70.20
2022-12-18T11:07:04.468Z,70.50
2022-12-18T11:09:34.479Z,66.93
2022-12-18T11:12:09.919Z,71.78
2022-12-18T11:14:46.761Z,79.70
2022-12-18T11:17:33.604Z,77.38
2022-12-18T11:20:05.441Z,76.40
2022-12-18T11:22:36.473Z,64.13
2022-12-18T11:25:33.225Z,70.72
2022-12-18T11:28:07.452Z,69.90
2022-12-18T11:30:37.522Z,71.80
2022-12-18T11:33:20.422Z,74.40
2022-12-18T11:36:05.902Z,75.35
2022-12-18T11:38:43.826Z,70.93
2022-12-18T11:41:54.188Z,75.47
2022-12-18T11:44:41.112Z,69.75
2022-12-18T11:47:29.395Z,73.43
2022-12-18T11:50:01.513Z,68.90
2022-12-18T11:52:39.424Z,70.30
2022-12-18T11:55:32.588Z,65.80
2022-12-18T11:58:16.685Z,72.40
2022-12-18T12:01:19.896Z,71.45
2022-12-18T12:04:01.976Z,74.05
2022-12-18T12:07:26.279Z,76.72
2022-12-18T12:13:50.108Z,66.72
2022-12-18T12:16:24.878Z,65.68
2022-12-18T12:19:48.468Z,71.88
2022-12-18T12:22:33.722Z,68.68
2022-12-18T12:25:28.027Z,67.72
2022-12-18T12:27:57.736Z,65.93
2022-12-18T12:30:42.307Z,63.40
2022-12-18T12:36:27.322Z,72.13
2022-12-18T12:38:59.661Z,64.90
2022-12-18T12:41:53.007Z,67.18
2022-12-18T12:44:28.714Z,70.63
2022-12-18T12:47:08.670Z,72.95
2022-12-18T12:52:38.922Z,68.57
2022-12-18T12:55:28.315Z,73.65
2022-12-18T12:58:39.766Z,73.47
2022-12-18T13:01:34.351Z,72.68
2022-12-18T13:04:21.676Z,68.57
2022-12-18T13:06:59.884Z,73.75
2022-12-18T13:09:36.875Z,71.05
2022-12-18T13:12:35.060Z,69.72
2022-12-18T13:15:23.882Z,67.55
2022-12-18T13:18:06.291Z,71.45
2022-12-18T13:20:52.436Z,66.07
2022-12-18T13:23:25.763Z,66.45
2022-12-18T13:26:22.071Z,68.60
2022-12-18T13:28:57.908Z,82.53
2022-12-18T13:31:40.168Z,76.45
2022-12-18T13:34:27.872Z,72.60
2022-12-18T13:37:00.503Z,68.13
2022-12-18T13:39:35.886Z,66.70
2022-12-18T13:42:06.074Z,69.72
2022-12-18T13:44:40.663Z,72.20
2022-12-18T13:47:41.260Z,67.82
2022-12-18T13:50:32.466Z,74.50
2022-12-18T13:53:06.290Z,85.00
2022-12-18T13:55:33.866Z,73.20
2022-12-18T13:58:07.880Z,71.07
2022-12-18T14:00:45.947Z,75.97
2022-12-18T14:03:32.664Z,83.88
2022-12-18T14:06:09.264Z,82.85
2022-12-18T14:08:41.676Z,73.45
2022-12-18T14:11:22.151Z,76.22
2022-12-18T14:13:51.184Z,72.80
2022-12-18T14:16:18.929Z,72.75
2022-12-18T14:19:08.419Z,65.75
2022-12-18T14:21:50.729Z,79.63
2022-12-18T14:24:22.175Z,75.47
2022-12-18T14:26:51.421Z,81.88
2022-12-18T14:29:28.863Z,77.88
2022-12-18T14:32:17.062Z,72.05
2022-12-18T14:34:55.040Z,78.75
2022-12-18T14:37:28.104Z,83.45
2022-12-18T14:40:10.879Z,86.10
2022-12-18T14:42:38.777Z,85.53
2022-12-18T14:45:40.991Z,88.93
2022-12-18T14:48:55.519Z,87.15
2022-12-18T14:51:26.961Z,81.43
2022-12-18T14:54:03.777Z,84.57
2022-12-18T14:56:38.214Z,81.43
2022-12-18T14:59:24.992Z,90.57
2022-12-18T15:02:16.521Z,79.72
2022-12-18T15:04:45.028Z,89.47
2022-12-18T15:07:12.124Z,92.65
2022-12-18T15:09:41.834Z,91.55
2022-12-18T15:12:33.865Z,89.72
2022-12-18T15:15:01.196Z,90.15
2022-12-18T15:17:28.445Z,83.68
2022-12-18T15:20:03.677Z,91.95
2022-12-18T15:22:35.302Z,87.07
2022-12-18T15:25:05.329Z,93.28
2022-12-18T15:27:38.855Z,89.60
2022-12-18T15:30:09.052Z,94.30
2022-12-18T15:32:38.616Z,101.22
2022-12-18T15:35:11.962Z,85.18
2022-12-18T15:37:39.509Z,85.13
2022-12-18T15:40:13.840Z,89.28
2022-12-18T15:42:59.485Z,87.88
2022-12-18T15:45:26.779Z,86.38
2022-12-18T15:47:54.016Z,83.00
2022-12-18T15:50:22.357Z,90.68
2022-12-18T15:52:52.743Z,84.47
2022-12-18T15:55:44.186Z,87.75
2022-12-18T15:58:13.533Z,90.90
2022-12-18T16:00:42.172Z,81.20
2022-12-18T16:03:10.329Z,78.18
2022-12-18T16:05:37.566Z,84.70
2022-12-18T16:08:04.745Z,86.63
2022-12-18T16:10:32.098Z,91.10
2022-12-18T16:12:59.242Z,87.80
2022-12-18T16:15:26.159Z,80.07
2022-12-18T16:17:53.223Z,91.35
2022-12-18T16:20:23.143Z,83.57
2022-12-18T16:22:50.839Z,74.25
2022-12-18T16:25:22.619Z,80.90
2022-12-18T16:27:50.422Z,82.78
2022-12-18T16:30:25.182Z,83.07
2022-12-18T16:32:53.024Z,92.70
2022-12-18T16:35:19.927Z,80.03
2022-12-18T16:37:46.962Z,93.45
2022-12-18T16:40:17.817Z,87.25
2022-12-18T16:42:47.189Z,87.47
2022-12-18T16:45:18.593Z,83.97
2022-12-18T16:47:46.312Z,80.78
2022-12-18T16:50:13.541Z,87.47
2022-12-18T16:52:40.816Z,93.40
2022-12-18T16:55:09.372Z,81.35
2022-12-18T16:57:36.486Z,83.25
2022-12-18T17:00:06.188Z,74.72
2022-12-18T17:02:34.105Z,87.40
2022-12-18T17:05:01.380Z,86.60
2022-12-18T17:07:29.464Z,86.80
2022-12-18T17:09:57.195Z,73.95
2022-12-18T17:12:24.455Z,88.50
2022-12-18T17:14:51.482Z,84.72
2022-12-18T17:17:21.844Z,88.88
2022-12-18T17:19:50.712Z,90.97
2022-12-18T17:22:18.265Z,91.53
2022-12-18T17:24:46.885Z,82.32
2022-12-18T17:27:14.170Z,86.45
2022-12-18T17:29:47.219Z,83.20
2022-12-18T17:32:17.945Z,85.47
2022-12-18T17:34:45.494Z,89.47
2022-12-18T17:37:13.252Z,88.82
2022-12-18T17:39:40.737Z,93.50
2022-12-18T17:42:10.896Z,94.50
2022-12-18T17:44:42.544Z,93.15
2022-12-18T17:47:12.022Z,75.50
2022-12-18T17:49:39.541Z,78.47
2022-12-18T17:52:06.940Z,78.43
2022-12-18T17:54:33.885Z,78.90
2022-12-18T17:57:00.869Z,82.53
2022-12-18T17:59:27.900Z,81.18
2022-12-18T18:01:55.068Z,82.22
2022-12-18T18:04:23.546Z,94.95
2022-12-18T18:06:50.937Z,91.53
2022-12-18T18:09:17.932Z,78.82
2022-12-18T18:12:03.994Z,97.00
2022-12-18T18:14:32.005Z,110.43
2022-12-18T18:17:01.126Z,174.88
2022-12-18T18:19:33.590Z,224.50
2022-12-18T18:22:01.545Z,116.45
2022-12-18T18:24:29.309Z,139.27
2022-12-18T18:26:56.487Z,104.85
2022-12-18T18:29:26.867Z,116.80
2022-12-18T18:31:54.830Z,125.30
2022-12-18T18:34:27.886Z,273.80
2022-12-18T18:36:55.089Z,126.50
2022-12-18T18:39:22.101Z,206.60
2022-12-18T18:41:49.920Z,191.68
2022-12-18T18:44:19.124Z,174.85
2022-12-18T18:46:47.441Z,126.85
2022-12-18T18:49:15.021Z,149.13
2022-12-18T18:51:42.755Z,142.48
2022-12-18T18:54:10.343Z,135.27
2022-12-18T18:57:12.010Z,163.93
2022-12-18T18:59:31.435Z,142.15
2022-12-18T19:02:04.321Z,181.07
2022-12-18T19:04:33.989Z,117.18
2022-12-18T19:07:02.110Z,404.98
2022-12-18T19:09:30.066Z,130.32
2022-12-18T19:12:16.274Z,212.10
2022-12-18T19:14:44.144Z,275.80
2022-12-18T19:17:11.117Z,287.70
2022-12-18T19:19:38.873Z,139.60
2022-12-18T19:22:05.832Z,140.77
2022-12-18T19:24:32.803Z,221.98
2022-12-18T19:26:59.770Z,157.30
2022-12-18T19:29:26.709Z,169.32
2022-12-18T19:31:53.721Z,202.40
2022-12-18T19:34:20.783Z,166.68
2022-12-18T19:36:48.012Z,407.50
2022-12-18T19:39:19.311Z,504.58
2022-12-18T19:41:47.297Z,392.65
2022-12-18T19:44:17.248Z,507.98
2022-12-18T19:46:46.289Z,245.00
2022-12-18T19:49:18.016Z,157.70
2022-12-18T19:51:45.748Z,584.67
2022-12-18T19:54:17.018Z,285.65
2022-12-18T19:56:45.321Z,126.72
2022-12-18T19:59:12.733Z,496.55
2022-12-18T20:01:40.116Z,418.60
2022-12-18T20:04:07.490Z,138.60
2022-12-18T20:06:46.136Z,131.63
2022-12-18T20:09:13.057Z,320.35
2022-12-18T20:11:41.828Z,411.75
2022-12-18T20:14:10.910Z,353.60
2022-12-18T20:16:38.364Z,377.10
2022-12-18T20:19:06.091Z,410.13
2022-12-18T20:21:33.674Z,160.52
2022-12-18T20:24:02.140Z,310.40
2022-12-18T20:26:29.507Z,367.83
2022-12-18T20:28:56.811Z,189.70
2022-12-18T20:31:24.506Z,562.83
2022-12-18T20:33:53.423Z,166.02
2022-12-18T20:36:24.668Z,159.43
2022-12-18T20:38:55.299Z,171.23
2022-12-18T20:41:25.293Z,172.95
2022-12-18T20:43:52.437Z,186.45
2022-12-18T20:46:20.577Z,195.13
2022-12-18T20:48:48.190Z,181.48
2022-12-18T20:51:19.083Z,192.95
2022-12-18T20:53:47.684Z,218.40
2022-12-18T20:56:21.634Z,233.82
2022-12-18T20:58:51.307Z,176.80
2022-12-18T21:01:23.981Z,172.05
2022-12-18T21:03:51.767Z,215.57
2022-12-18T21:06:21.612Z,283.48
2022-12-18T21:08:49.321Z,240.05
2022-12-18T21:11:41.911Z,256.88
2022-12-18T21:14:18.791Z,231.10
2022-12-18T21:16:47.015Z,198.90
2022-12-18T21:19:18.682Z,223.90
2022-12-18T21:21:46.445Z,216.40
2022-12-18T21:24:13.928Z,297.45
2022-12-18T21:26:45.702Z,201.80
2022-12-18T21:29:25.469Z,209.15
2022-12-18T21:31:54.768Z,208.70
2022-12-18T21:34:26.920Z,304.23
2022-12-18T21:36:56.572Z,239.70
2022-12-18T21:39:25.861Z,234.00
2022-12-18T21:42:11.728Z,198.20
2022-12-18T21:44:41.868Z,217.27
2022-12-18T21:47:20.131Z,312.00
2022-12-18T21:49:50.604Z,213.50
2022-12-18T21:52:17.801Z,247.80
2022-12-18T21:54:44.770Z,404.92
2022-12-18T21:57:13.743Z,225.05
2022-12-18T21:59:43.663Z,219.10
2022-12-18T22:02:16.469Z,206.85
2022-12-18T22:04:45.293Z,186.10
2022-12-18T22:07:15.181Z,423.55
2022-12-18T22:09:42.174Z,202.05
2022-12-18T22:12:13.066Z,274.83
2022-12-18T22:14:39.977Z,192.25
2022-12-18T22:17:07.104Z,178.73
2022-12-18T22:19:42.665Z,283.17
2022-12-18T22:22:10.105Z,260.10
2022-12-18T22:24:37.438Z,198.95
2022-12-18T22:27:04.465Z,180.13
2022-12-18T22:29:50.582Z,451.00
2022-12-18T22:32:25.595Z,225.57
2022-12-18T22:35:08.289Z,167.77
2022-12-18T22:37:37.507Z,262.48
2022-12-18T22:40:07.366Z,185.27
2022-12-18T22:42:34.642Z,168.77
2022-12-18T22:45:01.761Z,171.77
2022-12-18T22:47:30.479Z,211.90
2022-12-18T22:49:58.550Z,296.05
2022-12-18T22:52:25.878Z,292.55
2022-12-18T22:54:54.246Z,197.20
2022-12-18T22:57:23.300Z,238.98
2022-12-18T22:59:51.744Z,224.15
2022-12-18T23:02:19.761Z,457.10
2022-12-18T23:04:50.322Z,169.40
2022-12-18T23:07:17.795Z,331.90
2022-12-18T23:09:45.523Z,183.95
2022-12-18T23:12:16.672Z,191.43
2022-12-18T23:14:44.045Z,181.07
2022-12-18T23:17:11.229Z,283.90
2022-12-18T23:19:38.176Z,153.93
2022-12-18T23:22:11.375Z,153.63
2022-12-18T23:24:38.801Z,177.18
2022-12-18T23:27:05.767Z,168.77
2022-12-18T23:29:37.750Z,216.25
2022-12-18T23:32:05.042Z,251.05
2022-12-18T23:34:32.204Z,161.18
2022-12-18T23:36:59.169Z,320.90
2022-12-18T23:39:29.340Z,365.42
2022-12-18T23:41:58.855Z,325.38
2022-12-18T23:44:27.073Z,259.02
2022-12-18T23:46:54.986Z,176.77
2022-12-18T23:49:22.955Z,188.02
2022-12-18T23:51:50.440Z,171.60
2022-12-18T23:54:17.584Z,153.85
2022-12-18T23:56:49.672Z,174.95
2022-12-18T23:59:19.345Z,161.07
